createdAt,value
2017-10-27T00:00:01.878Z,28.10
2017-10-27T00:00:06.172Z,28.65
2017-10-27T00:00:10.455Z,28.33
2017-10-27T00:00:15.322Z,27.50
2017-10-27T00:00:19.946Z,28.70
2017-10-27T00:00:24.417Z,29.53
2017-10-27T00:00:28.728Z,29.85
2017-10-27T00:00:32.965Z,30.00
2017-10-27T00:00:37.244Z,31.00
2017-10-27T00:00:41.512Z,31.30
2017-10-27T00:00:45.766Z,31.80
2017-10-27T00:00:50.018Z,31.70
2017-10-27T00:00:54.294Z,31.80
2017-10-27T00:00:58.531Z,31.70
2017-10-27T00:01:02.784Z,31.15
2017-10-27T00:01:07.052Z,30.50
2017-10-27T00:01:11.349Z,30.57
2017-10-27T00:01:15.652Z,31.05
2017-10-27T00:01:19.896Z,29.65
2017-10-27T00:01:24.162Z,29.17
2017-10-27T00:01:29.216Z,28.90
2017-10-27T00:01:33.472Z,28.57
2017-10-27T00:01:37.752Z,28.15
2017-10-27T00:01:42.004Z,28.17
2017-10-27T00:01:46.332Z,27.90
2017-10-27T00:01:50.579Z,27.60
2017-10-27T00:01:55.708Z,28.07
2017-10-27T00:02:00.276Z,28.27
2017-10-27T00:02:05.495Z,29.50
2017-10-27T00:02:10.099Z,30.92
2017-10-27T00:02:14.678Z,31.45
2017-10-27T00:02:20.473Z,31.93
2017-10-27T00:02:25.359Z,32.20
2017-10-27T00:02:30.162Z,32.90
2017-10-27T00:02:35.010Z,32.80
2017-10-27T00:02:40.299Z,32.67
2017-10-27T00:02:45.345Z,32.13
2017-10-27T00:02:50.492Z,32.43
2017-10-27T00:02:55.614Z,31.67
2017-10-27T00:02:59.876Z,31.60
2017-10-27T00:03:04.113Z,30.90
2017-10-27T00:03:08.417Z,29.60
2017-10-27T00:03:12.678Z,28.10
2017-10-27T00:03:17.684Z,27.50
2017-10-27T00:03:22.710Z,27.60
2017-10-27T00:03:27.790Z,27.80
2017-10-27T00:03:32.644Z,27.20
2017-10-27T00:03:37.962Z,27.30
2017-10-27T00:03:43.879Z,27.00
2017-10-27T00:03:49.149Z,26.30
2017-10-27T00:03:54.817Z,26.52
2017-10-27T00:03:59.603Z,27.43
2017-10-27T00:04:04.250Z,27.53
2017-10-27T00:04:08.711Z,27.83
2017-10-27T00:04:13.744Z,28.20
2017-10-27T00:04:18.302Z,28.30
2017-10-27T00:04:23.049Z,28.03
2017-10-27T00:04:27.319Z,27.75
2017-10-27T00:04:31.560Z,27.87
2017-10-27T00:04:35.828Z,27.70
2017-10-27T00:04:40.825Z,28.20
2017-10-27T00:04:45.103Z,28.53
2017-10-27T00:04:49.378Z,28.60
2017-10-27T00:04:54.394Z,27.90
2017-10-27T00:04:58.746Z,27.80
2017-10-27T00:05:03.097Z,27.75
2017-10-27T00:05:07.659Z,28.67
2017-10-27T00:05:12.334Z,29.35
2017-10-27T00:05:16.666Z,29.57
2017-10-27T00:05:20.964Z,30.35
2017-10-27T00:05:25.336Z,29.93
2017-10-27T00:05:29.588Z,30.05
2017-10-27T00:05:34.682Z,30.75
2017-10-27T00:05:38.928Z,30.13
2017-10-27T00:05:43.188Z,30.20
2017-10-27T00:05:47.434Z,30.20
2017-10-27T00:05:51.699Z,30.35
2017-10-27T00:05:55.951Z,30.40
2017-10-27T00:06:00.194Z,29.65
2017-10-27T00:06:04.460Z,29.70
2017-10-27T00:06:08.840Z,28.50
2017-10-27T00:06:13.928Z,28.47
2017-10-27T00:06:18.961Z,28.03
2017-10-27T00:06:24.003Z,27.60
2017-10-27T00:06:28.633Z,27.27
2017-10-27T00:06:33.223Z,26.87
2017-10-27T00:06:37.770Z,26.80
2017-10-27T00:06:42.533Z,26.90
2017-10-27T00:06:46.978Z,26.80
2017-10-27T00:06:52.158Z,27.05
2017-10-27T00:06:56.647Z,26.95
2017-10-27T00:07:00.936Z,27.40
2017-10-27T00:07:05.200Z,27.95
2017-10-27T00:07:09.460Z,28.20
2017-10-27T00:07:13.759Z,28.20
2017-10-27T00:07:18.796Z,27.65
2017-10-27T00:07:23.033Z,27.40
2017-10-27T00:07:27.302Z,27.55
2017-10-27T00:07:31.541Z,27.60
2017-10-27T00:07:35.797Z,27.20
2017-10-27T00:07:40.048Z,27.05
2017-10-27T00:07:44.274Z,27.40
2017-10-27T00:07:48.534Z,28.13
2017-10-27T00:07:52.795Z,28.35
2017-10-27T00:07:57.034Z,28.55
2017-10-27T00:08:01.277Z,28.45
2017-10-27T00:08:05.540Z,27.53
2017-10-27T00:08:09.823Z,27.25
2017-10-27T00:08:14.085Z,27.00
2017-10-27T00:08:18.339Z,27.25
2017-10-27T00:08:22.598Z,27.93
2017-10-27T00:08:26.864Z,28.15
2017-10-27T00:08:31.889Z,28.45
2017-10-27T00:08:36.146Z,29.33
2017-10-27T00:08:40.396Z,30.03
2017-10-27T00:08:44.695Z,30.25
2017-10-27T00:08:49.720Z,29.75
2017-10-27T00:08:53.991Z,29.87
2017-10-27T00:08:58.265Z,30.00
2017-10-27T00:09:02.612Z,30.25
2017-10-27T00:09:07.634Z,30.40
2017-10-27T00:09:12.648Z,30.80
2017-10-27T00:09:16.983Z,31.03
2017-10-27T00:09:21.240Z,30.73
2017-10-27T00:09:26.385Z,31.70
2017-10-27T00:09:30.631Z,31.80
2017-10-27T00:09:34.898Z,31.00
2017-10-27T00:09:39.157Z,30.03
2017-10-27T00:09:43.407Z,29.60
2017-10-27T00:09:47.665Z,29.00
2017-10-27T00:09:52.683Z,29.90
2017-10-27T00:09:56.941Z,29.37
2017-10-27T00:10:01.205Z,28.90
2017-10-27T00:10:05.449Z,28.40
2017-10-27T00:10:09.685Z,28.40
2017-10-27T00:10:14.709Z,28.23
2017-10-27T00:10:18.958Z,28.27
2017-10-27T00:10:23.211Z,28.05
2017-10-27T00:10:27.487Z,27.05
2017-10-27T00:10:31.722Z,27.65
2017-10-27T00:10:35.992Z,29.17
2017-10-27T00:10:40.240Z,30.30
2017-10-27T00:10:44.486Z,30.60
2017-10-27T00:10:48.733Z,30.60
2017-10-27T00:10:52.973Z,29.77
2017-10-27T00:10:57.225Z,29.65
2017-10-27T00:11:01.475Z,29.50
2017-10-27T00:11:05.731Z,30.37
2017-10-27T00:11:09.990Z,29.95
2017-10-27T00:11:14.232Z,29.55
2017-10-27T00:11:18.492Z,30.20
2017-10-27T00:11:22.744Z,30.60
2017-10-27T00:11:26.993Z,31.00
2017-10-27T00:11:32.074Z,31.10
2017-10-27T00:11:36.426Z,30.00
2017-10-27T00:11:40.872Z,29.53
2017-10-27T00:11:45.154Z,29.30
2017-10-27T00:11:49.454Z,29.45
2017-10-27T00:11:53.732Z,29.60
2017-10-27T00:11:58.763Z,30.35
2017-10-27T00:12:03.842Z,31.03
2017-10-27T00:12:08.509Z,31.43
2017-10-27T00:12:13.111Z,32.37
2017-10-27T00:12:18.758Z,32.43
2017-10-27T00:12:23.139Z,32.27
2017-10-27T00:12:27.423Z,31.60
2017-10-27T00:12:32.433Z,31.15
2017-10-27T00:12:36.692Z,31.33
2017-10-27T00:12:40.950Z,30.65
2017-10-27T00:12:45.975Z,31.40
2017-10-27T00:12:51.009Z,32.00
2017-10-27T00:12:55.295Z,32.10
2017-10-27T00:12:59.743Z,31.03
2017-10-27T00:13:04.117Z,31.80
2017-10-27T00:13:09.742Z,32.13
2017-10-27T00:13:14.577Z,31.40
2017-10-27T00:13:19.939Z,31.10
2017-10-27T00:13:24.399Z,30.50
2017-10-27T00:13:28.651Z,29.70
2017-10-27T00:13:32.910Z,29.80
2017-10-27T00:13:37.171Z,29.43
2017-10-27T00:13:42.165Z,29.60
2017-10-27T00:13:46.430Z,28.80
2017-10-27T00:13:50.665Z,28.25
2017-10-27T00:13:54.944Z,28.20
2017-10-27T00:13:59.211Z,28.80
2017-10-27T00:14:03.452Z,27.70
2017-10-27T00:14:07.714Z,26.95
2017-10-27T00:14:11.956Z,27.75
2017-10-27T00:14:16.230Z,28.70
2017-10-27T00:14:20.477Z,28.65
2017-10-27T00:14:24.882Z,29.10
2017-10-27T00:14:29.703Z,29.47
2017-10-27T00:14:34.447Z,29.37
2017-10-27T00:14:39.980Z,29.65
2017-10-27T00:14:44.721Z,29.12
2017-10-27T00:14:49.278Z,28.70
2017-10-27T00:14:53.635Z,28.65
2017-10-27T00:14:59.107Z,28.50
2017-10-27T00:15:04.514Z,28.27
2017-10-27T00:15:09.716Z,28.20
2017-10-27T00:15:14.505Z,27.13
2017-10-27T00:15:19.515Z,27.07
2017-10-27T00:15:24.940Z,27.20
2017-10-27T00:15:30.530Z,26.83
2017-10-27T00:15:35.316Z,26.80
2017-10-27T00:15:40.143Z,26.87
2017-10-27T00:15:45.125Z,27.75
2017-10-27T00:15:49.695Z,28.43
2017-10-27T00:15:54.887Z,28.87
2017-10-27T00:15:59.532Z,28.93
2017-10-27T00:16:04.101Z,29.23
2017-10-27T00:16:08.759Z,29.17
2017-10-27T00:16:13.205Z,29.30
2017-10-27T00:16:18.387Z,29.10
2017-10-27T00:16:23.095Z,29.17
2017-10-27T00:16:28.082Z,30.35
2017-10-27T00:16:33.118Z,30.23
2017-10-27T00:16:38.125Z,29.33
2017-10-27T00:16:43.159Z,29.03
2017-10-27T00:16:47.412Z,28.65
2017-10-27T00:16:51.660Z,27.75
2017-10-27T00:16:55.901Z,27.65
2017-10-27T00:17:00.168Z,28.00
2017-10-27T00:17:04.429Z,28.47
2017-10-27T00:17:08.703Z,29.25
2017-10-27T00:17:12.961Z,28.85
2017-10-27T00:17:17.973Z,29.15
2017-10-27T00:17:22.233Z,29.12
2017-10-27T00:17:26.504Z,28.10
2017-10-27T00:17:30.862Z,28.65
2017-10-27T00:17:35.167Z,29.45
2017-10-27T00:17:40.321Z,28.73
2017-10-27T00:17:45.474Z,28.73
2017-10-27T00:17:49.814Z,28.53
2017-10-27T00:17:54.883Z,29.65
2017-10-27T00:17:59.145Z,29.17
2017-10-27T00:18:03.521Z,28.80
2017-10-27T00:18:07.789Z,28.00
2017-10-27T00:18:12.036Z,28.10
2017-10-27T00:18:16.594Z,28.35
2017-10-27T00:18:20.967Z,28.90
2017-10-27T00:18:25.296Z,29.50
2017-10-27T00:18:29.541Z,29.85
2017-10-27T00:18:34.567Z,30.35
2017-10-27T00:18:39.576Z,31.40
2017-10-27T00:18:44.593Z,32.13
2017-10-27T00:18:48.845Z,32.20
2017-10-27T00:18:53.144Z,32.37
2017-10-27T00:18:57.401Z,32.85
2017-10-27T00:19:01.657Z,33.00
2017-10-27T00:19:05.937Z,33.20
2017-10-27T00:19:10.184Z,33.90
2017-10-27T00:19:14.434Z,33.65
2017-10-27T00:19:18.696Z,33.35
2017-10-27T00:19:23.709Z,33.17
2017-10-27T00:19:27.984Z,33.50
2017-10-27T00:19:32.235Z,32.25
2017-10-27T00:19:37.239Z,31.60
2017-10-27T00:19:42.248Z,31.47
2017-10-27T00:19:46.489Z,31.43
2017-10-27T00:19:50.757Z,30.77
2017-10-27T00:19:55.787Z,30.50
2017-10-27T00:20:00.840Z,30.37
2017-10-27T00:20:05.108Z,30.33
2017-10-27T00:20:10.128Z,29.95
2017-10-27T00:20:15.121Z,30.73
2017-10-27T00:20:20.130Z,30.27
2017-10-27T00:20:24.420Z,30.33
2017-10-27T00:20:28.642Z,29.63
2017-10-27T00:20:33.680Z,29.95
2017-10-27T00:20:38.694Z,30.03
2017-10-27T00:20:43.738Z,30.30
2017-10-27T01:02:05.289Z,38.00
2017-10-27T01:02:09.542Z,37.80
2017-10-27T01:02:13.810Z,37.00
2017-10-27T01:02:18.104Z,37.10
2017-10-27T01:02:23.231Z,36.05
2017-10-27T01:02:28.267Z,35.67
2017-10-27T01:02:32.532Z,35.30
2017-10-27T01:02:36.804Z,34.50
2017-10-27T01:02:41.074Z,34.10
2017-10-27T01:02:45.353Z,35.00
2017-10-27T01:02:50.356Z,35.05
2017-10-27T01:02:55.394Z,35.17
2017-10-27T01:02:59.899Z,36.00
2017-10-27T01:03:04.965Z,36.93
2017-10-27T01:03:09.638Z,38.30
2017-10-27T01:03:14.230Z,38.63
2017-10-27T01:03:18.891Z,38.95
2017-10-27T01:03:23.302Z,39.93
2017-10-27T01:03:27.639Z,40.45
2017-10-27T01:03:32.671Z,40.93
2017-10-27T01:03:37.688Z,40.20
2017-10-27T01:03:42.720Z,39.30
2017-10-27T01:03:46.983Z,39.43
2017-10-27T01:03:51.237Z,39.55
2017-10-27T01:03:55.487Z,39.05
2017-10-27T01:03:59.732Z,39.47
2017-10-27T01:04:03.990Z,39.50
2017-10-27T01:04:08.262Z,38.90
2017-10-27T01:04:12.503Z,38.25
2017-10-27T01:04:17.523Z,37.83
2017-10-27T01:04:22.541Z,37.57
2017-10-27T01:04:26.801Z,37.80
2017-10-27T01:04:31.191Z,37.80
2017-10-27T01:04:35.664Z,37.80
2017-10-27T01:04:40.162Z,38.20
2017-10-27T01:04:44.574Z,38.67
2017-10-27T01:04:48.876Z,38.45
2017-10-27T01:04:53.225Z,38.55
2017-10-27T01:04:57.479Z,37.83
2017-10-27T01:05:01.733Z,37.00
2017-10-27T01:05:05.991Z,36.35
2017-10-27T01:05:10.213Z,37.55
2017-10-27T01:05:14.511Z,38.43
2017-10-27T01:05:18.825Z,38.60
2017-10-27T01:05:23.080Z,37.85
2017-10-27T01:05:27.339Z,37.13
2017-10-27T01:05:31.735Z,37.85
2017-10-27T01:05:36.040Z,38.80
2017-10-27T01:05:40.385Z,38.77
2017-10-27T01:05:45.161Z,37.85
2017-10-27T01:05:49.744Z,37.60
2017-10-27T01:05:54.203Z,38.35
2017-10-27T01:05:59.405Z,38.53
2017-10-27T01:06:04.449Z,38.95
2017-10-27T01:06:09.452Z,37.90
2017-10-27T01:06:14.457Z,36.23
2017-10-27T01:06:19.492Z,36.40
2017-10-27T01:06:24.527Z,35.83
2017-10-27T01:06:28.790Z,35.93
2017-10-27T01:06:33.184Z,35.93
2017-10-27T01:06:37.624Z,35.75
2017-10-27T01:06:42.133Z,36.10
2017-10-27T01:06:46.571Z,36.40
2017-10-27T01:06:50.828Z,36.90
2017-10-27T01:06:55.848Z,37.40
2017-10-27T01:07:00.850Z,38.33
2017-10-27T01:07:05.903Z,39.20
2017-10-27T01:07:10.146Z,39.83
2017-10-27T01:07:14.503Z,40.75
2017-10-27T01:07:18.759Z,40.65
2017-10-27T01:07:23.789Z,41.43
2017-10-27T01:07:28.153Z,42.13
2017-10-27T01:07:33.825Z,41.95
2017-10-27T01:08:13.638Z,38.09
2017-10-27T01:08:17.951Z,38.23
2017-10-27T01:08:22.354Z,37.65
2017-10-27T01:08:27.524Z,37.40
2017-10-27T01:08:33.321Z,36.90
2017-10-27T01:08:38.319Z,37.72
2017-10-27T01:08:42.887Z,38.37
2017-10-27T01:08:47.201Z,38.80
2017-10-27T01:08:51.954Z,38.70
2017-10-27T01:08:56.709Z,39.60
2017-10-27T01:09:01.717Z,40.07
2017-10-27T01:09:06.972Z,40.50
2017-10-27T01:09:11.497Z,40.40
2017-10-27T01:09:15.953Z,39.63
2017-10-27T01:09:20.763Z,39.03
2017-10-27T01:09:25.483Z,39.70
2017-10-27T01:09:29.722Z,39.53
2017-10-27T01:09:34.013Z,39.45
2017-10-27T01:09:38.263Z,39.07
2017-10-27T01:09:43.272Z,39.55
2017-10-27T01:09:47.514Z,40.30
2017-10-27T01:09:51.776Z,40.30
2017-10-27T01:09:56.991Z,39.80
2017-10-27T01:10:01.247Z,39.03
2017-10-27T01:10:05.671Z,38.85
2017-10-27T01:10:10.184Z,39.35
2017-10-27T01:10:14.566Z,41.20
2017-10-27T01:10:20.257Z,42.55
2017-10-27T01:10:24.837Z,42.70
2017-10-27T01:10:29.060Z,42.77
2017-10-27T01:10:34.079Z,42.80
2017-10-27T01:10:38.355Z,42.63
2017-10-27T01:10:42.604Z,42.50
2017-10-27T01:10:46.871Z,41.40
2017-10-27T01:10:51.898Z,41.60
2017-10-27T01:10:56.931Z,43.07
2017-10-27T01:11:01.183Z,43.60
2017-10-27T01:11:05.439Z,43.20
2017-10-27T01:11:09.687Z,42.70
2017-10-27T01:11:13.942Z,41.90
2017-10-27T01:11:18.200Z,40.80
2017-10-27T01:11:22.433Z,39.75
2017-10-27T01:11:26.909Z,40.60
2017-10-27T01:11:31.386Z,41.47
2017-10-27T01:11:35.970Z,43.55
2017-10-27T01:11:40.279Z,44.10
2017-10-27T01:53:02.121Z,41.65
2017-10-27T01:53:06.377Z,40.73
2017-10-27T01:53:10.641Z,40.30
2017-10-27T01:53:15.684Z,40.00
2017-10-27T01:53:19.925Z,40.00
2017-10-27T01:53:24.181Z,40.70
2017-10-27T01:53:29.276Z,41.65
2017-10-27T01:53:33.930Z,41.30
2017-10-27T01:53:38.452Z,39.87
2017-10-27T01:53:43.232Z,39.85
2017-10-27T01:53:47.893Z,38.60
2017-10-27T01:53:52.359Z,38.23
2017-10-27T01:53:57.630Z,38.05
2017-10-27T01:54:01.933Z,37.77
2017-10-27T01:54:06.263Z,37.50
2017-10-27T01:54:10.668Z,37.10
2017-10-27T01:54:15.284Z,37.50
2017-10-27T01:54:19.865Z,38.20
2017-10-27T01:54:24.373Z,38.00
2017-10-27T01:54:29.418Z,36.95
2017-10-27T01:54:33.666Z,36.83
2017-10-27T01:54:37.912Z,37.67
2017-10-27T01:54:42.153Z,37.30
2017-10-27T01:54:46.401Z,36.90
2017-10-27T01:54:51.402Z,37.45
2017-10-27T01:54:55.708Z,37.83
2017-10-27T01:55:00.022Z,36.93
2017-10-27T01:55:05.130Z,38.00
2017-10-27T01:55:10.172Z,38.13
2017-10-27T01:55:14.432Z,37.43
2017-10-27T01:55:18.693Z,38.03
2017-10-27T01:55:22.959Z,37.60
2017-10-27T01:55:27.283Z,37.55
2017-10-27T01:55:31.594Z,37.85
2017-10-27T01:55:36.119Z,38.10
2017-10-27T01:55:40.879Z,38.15
2017-10-27T01:55:45.544Z,38.70
2017-10-27T01:55:50.532Z,39.70
2017-10-27T01:55:55.246Z,39.07
2017-10-27T01:55:59.665Z,39.33
2017-10-27T01:56:03.966Z,38.55
2017-10-27T01:56:08.444Z,38.90
2017-10-27T01:56:12.780Z,39.70
2017-10-27T01:56:17.423Z,39.00
2017-10-27T01:56:21.739Z,38.80
2017-10-27T01:56:26.210Z,39.10
2017-10-27T01:56:30.506Z,38.83
2017-10-27T01:56:34.760Z,38.35
2017-10-27T01:56:39.028Z,37.25
2017-10-27T01:56:43.291Z,36.93
2017-10-27T01:56:47.564Z,36.55
2017-10-27T01:56:51.801Z,36.60
2017-10-27T01:56:56.103Z,36.80
2017-10-27T01:57:00.437Z,36.60
2017-10-27T01:57:05.515Z,36.25
2017-10-27T01:57:10.766Z,36.77
2017-10-27T01:57:15.045Z,36.73
2017-10-27T01:57:19.389Z,36.30
2017-10-27T01:57:24.413Z,35.65
2017-10-27T01:57:29.461Z,35.37
2017-10-27T01:57:33.701Z,35.17
2017-10-27T01:57:37.933Z,34.80
2017-10-27T01:57:42.194Z,34.80
2017-10-27T01:57:46.425Z,34.85
2017-10-27T01:57:51.432Z,35.10
2017-10-27T01:57:55.969Z,35.23
2017-10-27T01:58:00.485Z,35.50
2017-10-27T01:58:04.767Z,35.80
2017-10-27T01:58:09.350Z,35.40
2017-10-27T01:58:13.633Z,35.25
2017-10-27T01:58:18.137Z,36.03
2017-10-27T01:58:22.760Z,36.40
2017-10-27T01:58:27.008Z,37.53
2017-10-27T01:58:31.276Z,37.80
2017-10-27T01:58:36.294Z,38.70
2017-10-27T01:58:40.529Z,39.10
2017-10-27T01:58:44.782Z,38.47
2017-10-27T01:58:49.057Z,38.20
2017-10-27T01:58:53.296Z,38.05
2017-10-27T01:58:58.325Z,37.30
2017-10-27T01:59:03.347Z,37.10
2017-10-27T01:59:08.376Z,37.13
2017-10-27T01:59:12.609Z,37.43
2017-10-27T01:59:16.873Z,36.47
2017-10-27T01:59:21.118Z,36.80
2017-10-27T01:59:25.380Z,37.00
2017-10-27T01:59:29.625Z,36.93
2017-10-27T01:59:33.887Z,36.80
2017-10-27T01:59:38.159Z,36.40
2017-10-27T01:59:43.170Z,37.00
2017-10-27T01:59:48.176Z,38.70
2017-10-27T01:59:53.186Z,39.00
2017-10-27T01:59:57.627Z,39.00
2017-10-27T02:00:02.824Z,39.75
2017-10-27T02:00:08.063Z,39.33
2017-10-27T02:00:12.289Z,40.70
2017-10-27T02:00:16.805Z,41.57
2017-10-27T02:00:21.150Z,40.85
2017-10-27T02:00:25.505Z,39.90
2017-10-27T02:00:30.124Z,39.75
2017-10-27T02:00:35.328Z,39.90
2017-10-27T02:00:39.770Z,39.73
2017-10-27T02:00:44.029Z,38.85
2017-10-27T02:00:48.572Z,37.17
2017-10-27T02:00:53.900Z,37.00
2017-10-27T02:00:58.185Z,36.80
2017-10-27T02:01:02.715Z,35.70
2017-10-27T02:01:07.267Z,35.95
2017-10-27T02:01:11.628Z,35.77
2017-10-27T02:01:16.029Z,35.55
2017-10-27T02:01:20.461Z,35.77
2017-10-27T02:01:24.867Z,35.35
2017-10-27T02:01:29.497Z,35.00
2017-10-27T02:01:34.650Z,35.40
2017-10-27T02:01:38.950Z,35.67
2017-10-27T02:01:43.472Z,35.80
2017-10-27T02:01:48.054Z,36.05
2017-10-27T02:01:53.149Z,36.30
2017-10-27T02:01:57.704Z,36.73
2017-10-27T02:02:01.959Z,36.73
2017-10-27T02:02:06.205Z,36.20
2017-10-27T02:02:10.449Z,35.60
2017-10-27T02:02:14.750Z,35.50
2017-10-27T02:02:19.753Z,35.33
2017-10-27T02:02:24.773Z,36.60
2017-10-27T02:02:29.889Z,38.13
2017-10-27T02:02:34.336Z,37.53
2017-10-27T02:02:39.456Z,37.70
2017-10-27T02:02:44.479Z,37.47
2017-10-27T02:02:48.831Z,37.55
2017-10-27T02:02:53.195Z,37.45
2017-10-27T02:02:57.436Z,37.05
2017-10-27T02:03:01.673Z,37.07
2017-10-27T02:03:35.525Z,33.78
2017-10-27T02:03:39.793Z,33.95
2017-10-27T02:03:44.060Z,34.10
2017-10-27T02:04:03.205Z,35.35
2017-10-27T02:04:08.206Z,36.10
2017-10-27T02:04:13.232Z,36.40
2017-10-27T02:04:17.531Z,37.23
2017-10-27T02:04:22.553Z,39.50
2017-10-27T02:04:27.561Z,40.03
2017-10-27T02:04:32.920Z,41.17
2017-10-27T02:04:37.576Z,41.60
2017-10-27T02:04:41.924Z,42.00
2017-10-27T02:04:46.340Z,42.85
2017-10-27T02:04:51.540Z,42.40
2017-10-27T02:04:57.547Z,41.70
2017-10-27T02:05:01.797Z,41.55
2017-10-27T02:05:06.037Z,40.80
2017-10-27T02:05:10.284Z,41.70
2017-10-27T02:05:14.529Z,41.90
2017-10-27T02:05:18.785Z,40.90
2017-10-27T02:05:23.055Z,38.90
2017-10-27T02:05:28.114Z,38.05
2017-10-27T02:05:32.370Z,36.67
2017-10-27T02:05:36.619Z,36.65
2017-10-27T02:05:40.892Z,36.45
2017-10-27T02:05:45.895Z,36.03
2017-10-27T02:05:50.159Z,36.90
2017-10-27T02:05:54.430Z,38.00
2017-10-27T02:05:58.696Z,38.20
2017-10-27T02:06:02.935Z,38.83
2017-10-27T02:06:07.173Z,37.80
2017-10-27T02:06:11.437Z,37.00
2017-10-27T02:06:15.670Z,36.10
2017-10-27T02:06:20.734Z,36.00
2017-10-27T02:06:25.756Z,35.57
2017-10-27T02:06:30.757Z,35.90
2017-10-27T02:06:35.778Z,35.57
2017-10-27T02:06:40.068Z,35.47
2017-10-27T02:06:44.357Z,35.00
2017-10-27T02:06:48.595Z,35.25
2017-10-27T02:06:53.612Z,34.83
2017-10-27T02:06:58.617Z,34.63
2017-10-27T02:07:03.667Z,34.47
2017-10-27T02:07:07.933Z,34.13
2017-10-27T02:07:12.951Z,34.25
2017-10-27T02:07:17.980Z,34.40
2017-10-27T02:07:23.003Z,34.53
2017-10-27T02:07:27.352Z,34.77
2017-10-27T02:07:31.956Z,35.13
2017-10-27T02:07:36.303Z,35.55
2017-10-27T02:07:41.377Z,35.60
2017-10-27T02:07:45.902Z,34.33
2017-10-27T02:07:50.597Z,34.35
2017-10-27T02:07:55.002Z,34.53
2017-10-27T02:07:59.336Z,33.70
2017-10-27T02:08:03.722Z,33.20
2017-10-27T02:08:08.035Z,33.15
2017-10-27T02:08:12.343Z,33.30
2017-10-27T02:08:16.816Z,32.93
2017-10-27T02:08:21.145Z,33.00
2017-10-27T02:08:25.476Z,33.33
2017-10-27T02:08:30.499Z,33.50
2017-10-27T02:08:34.754Z,33.40
2017-10-27T02:08:38.997Z,33.55
2017-10-27T02:08:43.248Z,33.67
2017-10-27T02:08:47.516Z,33.50
2017-10-27T02:08:51.768Z,33.60
2017-10-27T02:08:56.078Z,33.45
2017-10-27T02:09:00.375Z,33.73
2017-10-27T02:09:05.716Z,33.90
2017-10-27T02:09:10.813Z,34.00
2017-10-27T02:09:15.082Z,33.87
2017-10-27T02:09:19.364Z,33.73
2017-10-27T02:09:23.866Z,33.55
2017-10-27T02:09:28.261Z,34.25
2017-10-27T02:09:33.271Z,35.05
2017-10-27T02:09:37.544Z,34.67
2017-10-27T02:09:42.021Z,35.10
2017-10-27T02:09:46.404Z,34.73
2017-10-27T02:09:50.699Z,34.05
2017-10-27T02:09:55.241Z,33.77
2017-10-27T02:09:59.519Z,33.85
2017-10-27T02:10:04.677Z,34.10
2017-10-27T02:10:09.176Z,34.28
2017-10-27T02:10:13.749Z,34.65
2017-10-27T02:10:18.198Z,34.43
2017-10-27T02:10:22.517Z,35.50
2017-10-27T02:10:26.852Z,34.53
2017-10-27T02:10:31.887Z,33.05
2017-10-27T02:10:36.143Z,33.73
2017-10-27T02:10:41.154Z,33.55
2017-10-27T02:10:46.187Z,33.13
2017-10-27T02:10:51.231Z,34.07
2017-10-27T02:10:55.475Z,34.83
2017-10-27T02:10:59.726Z,34.37
2017-10-27T02:11:04.005Z,34.40
2017-10-27T02:11:08.272Z,34.70
2017-10-27T02:11:12.502Z,34.40
2017-10-27T02:11:17.528Z,35.17
2017-10-27T02:11:21.883Z,34.70
2017-10-27T02:11:26.130Z,34.95
2017-10-27T02:11:31.716Z,36.30
2017-10-27T02:11:36.127Z,37.33
2017-10-27T02:11:40.392Z,37.25
2017-10-27T02:11:44.795Z,39.00
2017-10-27T02:11:49.081Z,39.15
2017-10-27T02:11:53.613Z,39.55
2017-10-27T02:11:57.980Z,39.50
2017-10-27T02:12:03.039Z,39.65
2017-10-27T02:12:07.431Z,38.92
2017-10-27T02:12:12.059Z,39.00
2017-10-27T02:12:16.499Z,38.70
2017-10-27T02:12:20.921Z,38.30
2017-10-27T02:12:26.575Z,37.97
2017-10-27T02:12:30.990Z,37.03
2017-10-27T02:12:36.308Z,36.70
2017-10-27T02:12:40.816Z,37.03
2017-10-27T02:12:45.278Z,35.00
2017-10-27T02:12:50.527Z,34.93
2017-10-27T02:12:55.776Z,35.67
2017-10-27T02:13:00.026Z,37.40
2017-10-27T02:13:05.040Z,36.97
2017-10-27T02:13:10.046Z,36.70
2017-10-27T02:13:14.305Z,36.20
2017-10-27T02:13:18.567Z,36.60
2017-10-27T02:13:23.594Z,36.95
2017-10-27T02:13:28.273Z,36.90
2017-10-27T02:13:32.836Z,36.63
2017-10-27T02:13:37.096Z,35.63
2017-10-27T02:13:42.236Z,35.50
2017-10-27T02:13:46.645Z,36.30
2017-10-27T02:13:51.118Z,35.23
2017-10-27T02:13:55.423Z,33.05
2017-10-27T02:13:59.659Z,32.55
2017-10-27T02:14:03.921Z,32.80
2017-10-27T02:14:08.165Z,32.45
2017-10-27T02:14:12.430Z,32.70
2017-10-27T02:14:17.430Z,32.50
2017-10-27T02:14:21.675Z,31.97
2017-10-27T02:14:25.937Z,31.93
2017-10-27T02:14:30.214Z,31.60
2017-10-27T02:14:34.465Z,31.85
2017-10-27T02:14:38.858Z,31.70
2017-10-27T02:14:43.875Z,31.85
2017-10-27T02:14:48.162Z,31.97
2017-10-27T02:14:52.403Z,32.20
2017-10-27T02:14:56.650Z,32.33
2017-10-27T02:15:00.939Z,32.60
2017-10-27T02:15:05.211Z,32.80
2017-10-27T02:15:09.449Z,33.90
2017-10-27T02:15:13.704Z,33.93
2017-10-27T02:15:17.956Z,33.85
2017-10-27T02:15:22.964Z,33.90
2017-10-27T02:15:27.231Z,34.00
2017-10-27T02:15:31.539Z,34.75
2017-10-27T02:15:35.797Z,34.77
2017-10-27T02:15:40.051Z,35.90
2017-10-27T02:15:44.316Z,35.85
2017-10-27T02:15:49.327Z,35.80
2017-10-27T02:15:53.607Z,36.73
2017-10-27T02:15:58.645Z,36.80
2017-10-27T02:16:02.907Z,37.07
2017-10-27T02:16:07.147Z,36.55
2017-10-27T02:16:11.459Z,37.23
2017-10-27T02:16:16.452Z,37.40
2017-10-27T02:16:20.713Z,37.40
2017-10-27T02:16:24.987Z,37.75
2017-10-27T02:16:29.467Z,37.45
2017-10-27T02:16:34.029Z,36.87
2017-10-27T02:16:38.283Z,36.60
2017-10-27T02:16:42.542Z,35.70
2017-10-27T02:16:46.801Z,36.50
2017-10-27T02:16:51.033Z,36.10
2017-10-27T02:16:55.405Z,34.97
2017-10-27T02:16:59.657Z,34.25
2017-10-27T02:17:04.693Z,33.25
2017-10-27T02:17:09.694Z,32.93
2017-10-27T02:17:14.715Z,32.47
2017-10-27T02:17:19.741Z,32.33
2017-10-27T02:17:23.997Z,32.00
2017-10-27T02:17:28.370Z,33.17
2017-10-27T02:17:32.786Z,33.90
2017-10-27T02:17:37.335Z,33.77
2017-10-27T02:17:41.970Z,33.85
2017-10-27T02:17:47.067Z,33.60
2017-10-27T02:17:51.398Z,33.93
2017-10-27T02:17:56.069Z,35.17
2017-10-27T02:18:00.327Z,35.35
2017-10-27T02:18:04.557Z,35.20
2017-10-27T02:18:08.815Z,35.75
2017-10-27T02:18:13.071Z,36.70
2017-10-27T02:18:17.309Z,36.85
2017-10-27T02:18:21.554Z,37.10
2017-10-27T02:18:25.992Z,36.40
2017-10-27T02:18:30.264Z,35.30
2017-10-27T02:18:34.555Z,35.60
2017-10-27T02:18:38.817Z,35.30
2017-10-27T02:18:43.865Z,35.70
2017-10-27T02:18:48.224Z,37.27
2017-10-27T02:18:53.252Z,37.05
2017-10-27T02:18:57.514Z,36.37
2017-10-27T02:19:01.769Z,37.73
2017-10-27T02:19:06.009Z,37.55
2017-10-27T02:19:10.253Z,37.15
2017-10-27T02:19:14.493Z,37.05
2017-10-27T02:19:18.767Z,36.97
2017-10-27T02:19:23.009Z,36.75
2017-10-27T02:19:27.439Z,36.90
2017-10-27T02:19:33.249Z,36.50
2017-10-27T02:19:37.872Z,36.55
2017-10-27T02:19:43.311Z,36.55
2017-10-27T02:19:48.154Z,34.15
2017-10-27T02:19:52.762Z,33.30
2017-10-27T02:19:57.154Z,34.30
2017-10-27T02:20:01.460Z,32.90
2017-10-27T02:20:05.765Z,33.75
2017-10-27T02:20:10.077Z,33.75
2017-10-27T02:20:14.365Z,33.30
2017-10-27T02:20:18.719Z,33.07
2017-10-27T02:20:23.074Z,32.55
2017-10-27T02:20:27.626Z,32.60
2017-10-27T02:20:32.757Z,33.35
2017-10-27T02:20:37.422Z,34.03
2017-10-27T02:20:42.016Z,33.63
2017-10-27T02:20:47.109Z,33.37
2017-10-27T02:20:51.633Z,33.73
2017-10-27T02:20:56.011Z,32.20
2017-10-27T02:21:00.267Z,32.40
2017-10-27T02:21:04.512Z,32.60
2017-10-27T02:21:08.751Z,32.10
2017-10-27T02:21:12.994Z,32.55
2017-10-27T02:21:17.250Z,34.13
2017-10-27T02:21:21.513Z,35.20
2017-10-27T02:21:25.830Z,35.30
2017-10-27T02:21:30.192Z,34.70
2017-10-27T02:21:34.500Z,33.35
2017-10-27T02:21:38.755Z,33.25
2017-10-27T02:21:43.113Z,33.40
2017-10-27T02:21:47.463Z,33.65
2017-10-27T02:21:52.603Z,34.75
2017-10-27T02:21:56.830Z,35.33
2017-10-27T02:22:02.057Z,34.80
2017-10-27T02:22:06.403Z,34.40
2017-10-27T02:22:10.741Z,34.10
2017-10-27T02:22:15.888Z,33.67
2017-10-27T02:22:20.947Z,33.57
2017-10-27T02:22:25.372Z,33.53
2017-10-27T02:22:29.617Z,33.15